createdAt,value
2022-10-13T00:01:18.362Z,42.40
2022-10-13T00:03:49.554Z,34.40
2022-10-13T00:06:27.837Z,34.00
2022-10-13T00:08:59.825Z,39.80
2022-10-13T00:11:31.483Z,40.80
2022-10-13T00:14:03.310Z,42.70
2022-10-13T00:16:34.301Z,39.00
2022-10-13T00:19:04.810Z,47.30
2022-10-13T00:21:35.616Z,40.10
2022-10-13T00:24:06.235Z,38.00
2022-10-13T00:26:36.804Z,38.00
2022-10-13T00:29:10.995Z,37.20
2022-10-13T00:31:41.875Z,46.10
2022-10-13T00:34:12.379Z,43.20
2022-10-13T00:36:43.179Z,44.80
2022-10-13T00:39:13.716Z,44.20
2022-10-13T00:41:44.418Z,39.40
2022-10-13T00:44:28.509Z,41.90
2022-10-13T00:46:59.203Z,38.20
2022-10-13T00:49:29.698Z,47.90
2022-10-13T00:52:00.387Z,45.10
2022-10-13T00:54:31.056Z,48.00
2022-10-13T00:57:02.926Z,42.00
2022-10-13T00:59:35.154Z,42.30
2022-10-13T01:02:06.080Z,41.10
2022-10-13T01:04:38.914Z,41.30
2022-10-13T01:07:09.905Z,39.20
2022-10-13T01:09:42.789Z,36.00
2022-10-13T01:12:20.013Z,37.30
2022-10-13T01:14:54.506Z,34.00
2022-10-13T01:17:29.879Z,34.80
2022-10-13T01:20:24.355Z,41.20
2022-10-13T01:23:01.915Z,44.40
2022-10-13T01:25:45.135Z,44.90
2022-10-13T01:28:28.380Z,39.00
2022-10-13T01:31:00.959Z,35.80
2022-10-13T01:33:35.739Z,38.50
2022-10-13T01:36:12.240Z,32.00
2022-10-13T01:38:46.369Z,37.70
2022-10-13T01:41:20.591Z,40.70
2022-10-13T01:43:54.275Z,35.60
2022-10-13T01:46:26.565Z,42.80
2022-10-13T01:48:59.546Z,40.30
2022-10-13T01:51:30.796Z,33.60
2022-10-13T01:54:01.704Z,39.00
2022-10-13T01:56:32.442Z,36.60
2022-10-13T01:59:04.637Z,39.10
2022-10-13T02:01:40.996Z,37.70
2022-10-13T02:04:18.873Z,43.10
2022-10-13T02:06:52.315Z,36.00
2022-10-13T02:09:26.864Z,37.40
2022-10-13T02:12:00.217Z,42.10
2022-10-13T02:14:34.838Z,39.30
2022-10-13T02:17:06.678Z,38.30
2022-10-13T02:19:39.948Z,40.40
2022-10-13T02:22:11.567Z,36.70
2022-10-13T02:24:42.355Z,40.00
2022-10-13T02:27:13.603Z,42.10
2022-10-13T02:29:54.206Z,35.60
2022-10-13T02:32:25.511Z,41.50
2022-10-13T02:34:56.807Z,36.60
2022-10-13T02:37:27.376Z,35.00
2022-10-13T02:39:57.827Z,41.70
2022-10-13T02:42:28.406Z,43.60
2022-10-13T02:44:59.535Z,40.70
2022-10-13T02:47:29.897Z,35.90
2022-10-13T02:50:00.540Z,35.50
2022-10-13T02:52:31.098Z,37.50
2022-10-13T02:55:02.319Z,38.70
2022-10-13T02:57:32.982Z,39.70
2022-10-13T03:00:05.759Z,38.90
2022-10-13T03:02:36.363Z,43.30
2022-10-13T03:05:07.527Z,38.60
2022-10-13T03:07:38.053Z,41.40
2022-10-13T03:10:09.578Z,41.50
2022-10-13T03:12:40.105Z,43.10
2022-10-13T03:15:11.219Z,41.60
2022-10-13T03:17:41.877Z,43.60
2022-10-13T03:20:12.922Z,41.10
2022-10-13T03:22:48.721Z,45.20
2022-10-13T03:25:20.425Z,42.40
2022-10-13T03:27:51.188Z,38.20
2022-10-13T03:30:22.103Z,45.10
2022-10-13T03:32:52.732Z,38.70
2022-10-13T03:35:23.465Z,46.30
2022-10-13T03:37:54.020Z,44.00
2022-10-13T03:40:26.257Z,43.90
2022-10-13T03:42:57.115Z,38.10
2022-10-13T03:45:28.034Z,41.20
2022-10-13T03:47:58.578Z,47.40
2022-10-13T03:50:30.283Z,44.00
2022-10-13T03:53:00.774Z,40.70
2022-10-13T03:55:31.580Z,41.70
2022-10-13T03:58:02.108Z,47.30
2022-10-13T04:00:32.911Z,40.30
2022-10-13T04:03:03.291Z,42.10
2022-10-13T04:05:34.957Z,50.20
2022-10-13T04:08:05.943Z,49.40
2022-10-13T04:10:37.119Z,51.10
2022-10-13T04:13:08.025Z,45.60
2022-10-13T04:15:41.367Z,47.20
2022-10-13T04:18:13.030Z,53.70
2022-10-13T04:20:43.618Z,52.80
2022-10-13T04:23:14.879Z,50.20
2022-10-13T04:25:51.532Z,47.50
2022-10-13T04:28:22.116Z,48.40
2022-10-13T04:30:52.827Z,51.70
2022-10-13T04:33:23.410Z,53.70
2022-10-13T04:35:54.366Z,50.60
2022-10-13T04:38:25.045Z,52.20
2022-10-13T04:40:55.998Z,51.10
2022-10-13T04:46:03.151Z,58.30
2022-10-13T04:48:33.591Z,47.20
2022-10-13T04:51:05.521Z,42.70
2022-10-13T04:53:36.578Z,48.10
2022-10-13T04:56:10.003Z,56.40
2022-10-13T04:58:41.105Z,52.80
2022-10-13T05:01:16.497Z,56.40
2022-10-13T05:03:51.600Z,50.60
2022-10-13T05:06:23.443Z,51.10
2022-10-13T05:08:59.636Z,46.80
2022-10-13T05:11:30.987Z,49.60
2022-10-13T05:14:03.337Z,50.70
2022-10-13T05:16:33.946Z,52.60
2022-10-13T05:19:04.532Z,47.70
2022-10-13T05:21:35.270Z,45.30
2022-10-13T05:24:06.642Z,53.10
2022-10-13T05:26:37.612Z,55.00
2022-10-13T05:29:08.130Z,52.30
2022-10-13T05:31:38.818Z,53.70
2022-10-13T05:34:09.816Z,50.60
2022-10-13T05:36:40.633Z,49.30
2022-10-13T05:39:11.267Z,48.50
2022-10-13T05:41:41.890Z,56.60
2022-10-13T05:44:17.977Z,58.80
2022-10-13T05:46:57.769Z,55.70
2022-10-13T05:49:28.262Z,53.50
2022-10-13T05:52:00.844Z,53.70
2022-10-13T05:54:32.784Z,45.10
2022-10-13T05:57:04.740Z,44.80
2022-10-13T05:59:36.959Z,49.30
2022-10-13T06:02:09.325Z,45.60
2022-10-13T06:04:41.405Z,47.60
2022-10-13T06:07:12.567Z,48.60
2022-10-13T06:09:44.364Z,55.30
2022-10-13T06:12:15.268Z,47.60
2022-10-13T06:14:46.982Z,51.80
2022-10-13T06:17:19.094Z,51.40
2022-10-13T06:19:51.048Z,51.80
2022-10-13T06:22:23.216Z,61.50
2022-10-13T06:24:53.851Z,52.60
2022-10-13T06:27:24.615Z,53.60
2022-10-13T06:29:57.043Z,63.40
2022-10-13T06:32:27.855Z,63.10
2022-10-13T06:34:58.446Z,52.20
2022-10-13T06:37:29.336Z,56.10
2022-10-13T06:40:00.126Z,55.50
2022-10-13T06:42:34.781Z,57.50
2022-10-13T06:45:12.846Z,54.10
2022-10-13T06:47:44.167Z,56.70
2022-10-13T06:50:15.265Z,61.60
2022-10-13T06:52:45.981Z,64.50
2022-10-13T06:55:17.327Z,69.40
2022-10-13T06:57:47.983Z,60.50
2022-10-13T07:00:18.963Z,65.70
2022-10-13T07:02:52.665Z,59.40
2022-10-13T07:05:23.220Z,62.90
2022-10-13T07:07:54.505Z,68.70
2022-10-13T07:10:25.369Z,74.00
2022-10-13T07:12:56.350Z,70.80
2022-10-13T07:15:27.787Z,83.30
2022-10-13T07:17:58.828Z,79.90
2022-10-13T07:20:29.533Z,73.60
2022-10-13T07:23:00.495Z,87.20
2022-10-13T07:25:31.123Z,71.60
2022-10-13T07:28:02.042Z,91.80
2022-10-13T07:30:32.523Z,68.70
2022-10-13T07:33:03.791Z,70.60
2022-10-13T07:35:34.351Z,75.40
2022-10-13T07:38:05.269Z,65.80
2022-10-13T07:40:35.815Z,59.50
2022-10-13T07:43:06.467Z,56.50
2022-10-13T07:45:37.292Z,54.80
2022-10-13T07:48:07.971Z,59.90
2022-10-13T07:50:39.172Z,62.40
2022-10-13T07:53:09.753Z,70.20
2022-10-13T07:55:40.337Z,61.70
2022-10-13T07:58:11.051Z,62.50
2022-10-13T08:00:41.676Z,60.40
2022-10-13T08:03:12.204Z,65.60
2022-10-13T08:05:42.826Z,62.00
2022-10-13T08:08:14.047Z,61.90
2022-10-13T08:10:44.567Z,59.70
2022-10-13T08:13:15.811Z,55.50
2022-10-13T08:15:47.073Z,60.70
2022-10-13T08:18:18.236Z,52.70
2022-10-13T08:20:49.480Z,50.20
2022-10-13T08:23:21.747Z,61.90
2022-10-13T08:25:54.245Z,51.30
2022-10-13T08:28:25.963Z,49.30
2022-10-13T08:30:58.074Z,45.10
2022-10-13T08:33:28.883Z,48.70
2022-10-13T08:35:59.437Z,42.60
2022-10-13T08:38:30.351Z,46.10
2022-10-13T08:41:01.078Z,43.60
2022-10-13T08:43:31.967Z,36.50
2022-10-13T08:46:03.090Z,38.80
2022-10-13T08:48:36.319Z,36.60
2022-10-13T08:51:07.853Z,39.50
2022-10-13T08:53:41.510Z,43.00
2022-10-13T08:56:15.757Z,47.40
2022-10-13T08:58:50.393Z,36.30
2022-10-13T09:01:23.840Z,33.50
2022-10-13T09:03:55.804Z,33.90
2022-10-13T09:06:28.938Z,31.30
2022-10-13T09:09:00.767Z,32.70
2022-10-13T09:11:34.087Z,36.20
2022-10-13T09:14:06.340Z,32.20
2022-10-13T09:16:38.964Z,33.30
2022-10-13T09:19:17.065Z,34.30
2022-10-13T09:21:47.861Z,32.00
2022-10-13T09:24:19.921Z,34.60
2022-10-13T09:26:52.696Z,31.80
2022-10-13T09:29:26.079Z,33.40
2022-10-13T09:32:08.583Z,31.60
2022-10-13T09:34:39.044Z,34.60
2022-10-13T09:37:18.051Z,32.80
2022-10-13T09:40:00.463Z,35.90
2022-10-13T09:42:33.535Z,35.80
2022-10-13T09:47:34.369Z,29.70
2022-10-13T09:50:15.458Z,28.90
2022-10-13T09:52:47.030Z,30.20
2022-10-13T09:55:33.070Z,27.00
2022-10-13T09:58:06.154Z,27.10
2022-10-13T10:00:36.936Z,29.80
2022-10-13T10:03:11.698Z,24.70
2022-10-13T10:05:45.658Z,24.90
2022-10-13T10:08:22.582Z,23.90
2022-10-13T10:11:01.903Z,25.60
2022-10-13T10:13:32.911Z,25.00
2022-10-13T10:16:07.130Z,22.10
2022-10-13T10:18:39.296Z,22.30
2022-10-13T10:21:14.693Z,22.60
2022-10-13T10:23:48.024Z,19.60
2022-10-13T10:26:24.142Z,24.30
2022-10-13T10:29:16.344Z,20.40
2022-10-13T10:32:04.122Z,24.30
2022-10-13T10:34:39.414Z,21.90
2022-10-13T10:37:25.696Z,21.20
2022-10-13T10:40:03.813Z,21.70
2022-10-13T10:42:52.318Z,23.00
2022-10-13T10:45:24.427Z,22.30
2022-10-13T10:47:57.913Z,21.70
2022-10-13T10:50:32.192Z,27.00
2022-10-13T10:53:06.098Z,22.60
2022-10-13T10:55:39.183Z,24.10
2022-10-13T11:00:42.905Z,18.90
2022-10-13T11:03:20.675Z,19.30
2022-10-13T11:06:05.729Z,25.10
2022-10-13T11:08:44.338Z,20.10
2022-10-13T11:11:37.818Z,17.80
2022-10-13T11:14:25.609Z,18.20
2022-10-13T11:17:19.643Z,18.60
2022-10-13T11:19:51.541Z,21.70
2022-10-13T11:22:24.361Z,16.50
2022-10-13T11:25:05.620Z,16.50
2022-10-13T11:27:45.885Z,18.30
2022-10-13T11:30:33.728Z,17.30
2022-10-13T11:33:25.657Z,15.30
2022-10-13T11:35:56.050Z,20.80
2022-10-13T11:38:31.264Z,16.30
2022-10-13T11:41:08.295Z,15.90
2022-10-13T11:43:45.832Z,12.90
2022-10-13T11:46:25.222Z,16.90
2022-10-13T11:49:05.630Z,15.20
2022-10-13T11:51:42.160Z,18.00
2022-10-13T11:54:21.000Z,17.30
2022-10-13T11:56:52.259Z,16.30
2022-10-13T11:59:24.751Z,15.20
2022-10-13T12:01:59.817Z,16.10
2022-10-13T12:04:31.369Z,19.50
2022-10-13T12:07:03.788Z,18.50
2022-10-13T12:09:37.907Z,15.30
2022-10-13T12:12:13.964Z,16.10
2022-10-13T12:14:46.134Z,17.10
2022-10-13T12:17:23.911Z,11.00
2022-10-13T12:19:55.548Z,12.40
2022-10-13T12:22:26.510Z,16.00
2022-10-13T12:25:01.426Z,15.60
2022-10-13T12:27:33.779Z,13.20
2022-10-13T12:30:05.062Z,13.90
2022-10-13T12:32:36.029Z,14.30
2022-10-13T12:35:17.379Z,11.70
2022-10-13T12:37:48.852Z,10.60
2022-10-13T12:40:20.366Z,18.70
2022-10-13T12:42:51.656Z,11.40
2022-10-13T12:45:24.666Z,12.40
2022-10-13T12:47:55.736Z,24.50
2022-10-13T12:50:37.244Z,14.50
2022-10-13T12:53:20.686Z,13.80
2022-10-13T12:55:52.847Z,22.30
2022-10-13T12:58:24.061Z,17.40
2022-10-13T13:01:05.109Z,17.00
2022-10-13T13:03:37.630Z,19.20
2022-10-13T13:06:22.635Z,19.10
2022-10-13T13:09:19.658Z,16.80
2022-10-13T13:11:51.123Z,15.00
2022-10-13T13:14:25.532Z,20.60
2022-10-13T13:17:07.027Z,19.10
2022-10-13T13:19:37.931Z,18.30
2022-10-13T13:22:08.710Z,26.30
2022-10-13T13:24:40.785Z,14.90
2022-10-13T13:27:17.626Z,14.20
2022-10-13T13:29:48.458Z,16.30
2022-10-13T13:32:21.022Z,14.30
2022-10-13T13:34:51.633Z,16.00
2022-10-13T13:37:31.317Z,19.70
2022-10-13T13:40:01.711Z,12.90
2022-10-13T13:42:32.940Z,18.00
2022-10-13T13:45:03.277Z,23.40
2022-10-13T13:47:34.314Z,16.50
2022-10-13T13:50:05.183Z,14.80
2022-10-13T13:52:36.723Z,14.40
2022-10-13T13:55:08.853Z,18.30
2022-10-13T13:57:40.036Z,18.30
2022-10-13T14:00:11.547Z,18.90
2022-10-13T14:02:43.172Z,17.20
2022-10-13T14:05:13.645Z,15.30
2022-10-13T14:07:44.611Z,17.40
2022-10-13T14:10:14.893Z,14.10
2022-10-13T14:12:46.205Z,17.00
2022-10-13T14:15:16.569Z,17.40
2022-10-13T14:17:47.436Z,13.70
2022-10-13T14:20:18.203Z,15.40
2022-10-13T14:22:49.512Z,19.40
2022-10-13T14:25:20.561Z,15.50
2022-10-13T14:27:51.770Z,21.10
2022-10-13T14:30:22.201Z,13.40
2022-10-13T14:32:53.063Z,13.70
2022-10-13T14:35:23.287Z,13.90
2022-10-13T14:37:54.113Z,15.30
2022-10-13T14:40:24.363Z,11.70
2022-10-13T14:42:55.386Z,13.60
2022-10-13T14:45:25.776Z,14.10
2022-10-13T14:47:56.644Z,12.30
2022-10-13T14:50:27.855Z,14.40
2022-10-13T14:52:59.612Z,16.20
2022-10-13T14:55:32.243Z,12.70
2022-10-13T14:58:04.082Z,11.40
2022-10-13T15:00:34.814Z,12.20
2022-10-13T15:03:06.157Z,12.80
2022-10-13T15:05:36.672Z,14.00
2022-10-13T15:08:08.012Z,15.80
2022-10-13T15:10:38.873Z,11.70
2022-10-13T15:13:09.887Z,13.50
2022-10-13T15:15:46.552Z,14.30
2022-10-13T15:18:17.255Z,10.60
2022-10-13T15:20:48.675Z,10.30
2022-10-13T15:23:20.725Z,15.60
2022-10-13T15:25:56.353Z,12.50
2022-10-13T15:28:28.116Z,15.70
2022-10-13T15:30:58.532Z,16.70
2022-10-13T15:33:29.868Z,14.50
2022-10-13T15:36:00.343Z,16.30
2022-10-13T15:38:31.578Z,14.70
2022-10-13T15:41:02.980Z,15.70
2022-10-13T15:43:34.375Z,14.70
2022-10-13T15:46:06.138Z,17.80
2022-10-13T15:48:37.084Z,16.60
2022-10-13T15:51:14.729Z,17.20
2022-10-13T15:53:45.710Z,13.00
2022-10-13T15:56:16.204Z,18.60
2022-10-13T15:58:47.369Z,16.10
2022-10-13T16:01:18.025Z,16.30
2022-10-13T16:03:50.040Z,15.50
2022-10-13T16:06:22.136Z,14.50
2022-10-13T16:08:53.061Z,18.00
2022-10-13T16:11:23.766Z,18.90
2022-10-13T16:13:55.838Z,21.10
2022-10-13T16:16:28.057Z,18.00
2022-10-13T16:19:01.144Z,19.60
2022-10-13T16:21:32.141Z,19.90
2022-10-13T16:24:05.305Z,17.40
2022-10-13T16:26:35.760Z,16.30
2022-10-13T16:29:06.871Z,19.40
2022-10-13T16:31:37.235Z,17.60
2022-10-13T16:34:08.373Z,22.40
2022-10-13T16:36:38.843Z,20.60
2022-10-13T16:39:09.778Z,23.10
2022-10-13T16:44:11.836Z,20.90
2022-10-13T16:46:43.193Z,20.40
2022-10-13T16:49:14.097Z,21.70
2022-10-13T16:51:44.484Z,21.10
2022-10-13T16:54:15.359Z,27.50
2022-10-13T16:56:47.009Z,24.40
2022-10-13T16:59:17.741Z,25.60
2022-10-13T17:01:49.048Z,22.30
2022-10-13T17:04:22.316Z,26.50
2022-10-13T17:06:52.819Z,25.50
2022-10-13T17:09:23.908Z,21.70
2022-10-13T17:11:54.381Z,22.70
2022-10-13T17:14:25.731Z,27.30
2022-10-13T17:16:57.972Z,27.10
2022-10-13T17:19:29.147Z,28.10
2022-10-13T17:21:59.544Z,28.20
2022-10-13T17:24:31.071Z,24.30
2022-10-13T17:27:03.887Z,28.90
2022-10-13T17:29:34.886Z,20.10
2022-10-13T17:32:05.358Z,32.40
2022-10-13T17:34:36.809Z,25.20
2022-10-13T17:37:09.442Z,29.60
2022-10-13T17:39:41.215Z,25.70
2022-10-13T17:42:11.575Z,29.60
2022-10-13T17:44:44.147Z,26.90
2022-10-13T17:47:14.838Z,24.70
2022-10-13T17:49:46.324Z,28.80
2022-10-13T17:52:17.822Z,27.20
2022-10-13T17:54:51.684Z,25.10
2022-10-13T17:57:22.382Z,32.90
2022-10-13T17:59:54.982Z,28.80
2022-10-13T18:02:25.516Z,25.80
2022-10-13T18:04:56.085Z,29.10
2022-10-13T18:07:26.487Z,31.10
2022-10-13T18:09:58.135Z,29.40
2022-10-13T18:12:28.981Z,29.20
2022-10-13T18:14:59.993Z,29.70
2022-10-13T18:17:30.532Z,27.80
2022-10-13T18:20:01.944Z,32.00
2022-10-13T18:22:33.003Z,28.10
2022-10-13T18:25:04.670Z,27.60
2022-10-13T18:27:35.111Z,28.80
2022-10-13T18:30:07.263Z,27.70
2022-10-13T18:32:38.522Z,29.50
2022-10-13T18:35:10.438Z,27.60
2022-10-13T18:37:40.801Z,33.60
2022-10-13T18:40:12.627Z,28.00
2022-10-13T18:42:46.752Z,26.70
2022-10-13T18:45:18.225Z,32.60
2022-10-13T18:47:51.531Z,28.90
2022-10-13T18:50:22.587Z,34.30
2022-10-13T18:52:53.295Z,33.00
2022-10-13T18:55:24.485Z,30.90
2022-10-13T18:57:55.860Z,28.90
2022-10-13T19:00:26.709Z,27.30
2022-10-13T19:02:56.962Z,28.50
2022-10-13T19:05:28.207Z,30.20
2022-10-13T19:08:00.661Z,28.00
2022-10-13T19:10:33.194Z,27.80
2022-10-13T19:13:04.389Z,41.00
2022-10-13T19:15:35.213Z,34.50
2022-10-13T19:18:06.464Z,33.00
2022-10-13T19:20:37.908Z,34.60
2022-10-13T19:23:08.665Z,29.70
2022-10-13T19:25:42.136Z,31.60
2022-10-13T19:28:13.168Z,30.90
2022-10-13T19:30:44.323Z,31.60
2022-10-13T19:33:15.934Z,34.30
2022-10-13T19:35:52.034Z,37.50
2022-10-13T19:38:22.315Z,28.20
2022-10-13T19:40:53.612Z,33.20
2022-10-13T19:43:24.139Z,33.00
2022-10-13T19:45:59.794Z,38.10
2022-10-13T19:48:30.747Z,34.00
2022-10-13T19:51:03.150Z,36.00
2022-10-13T19:53:33.518Z,35.90
2022-10-13T19:56:04.869Z,33.40
2022-10-13T19:58:35.702Z,35.90
2022-10-13T20:01:08.581Z,37.50
2022-10-13T20:03:39.002Z,33.40
2022-10-13T20:06:11.180Z,36.60
2022-10-13T20:08:42.130Z,33.90
2022-10-13T20:11:15.736Z,34.50
2022-10-13T20:13:48.551Z,37.10
2022-10-13T20:16:21.793Z,30.90
2022-10-13T20:18:53.752Z,33.60
2022-10-13T20:21:24.882Z,41.20
2022-10-13T20:23:55.763Z,34.20
2022-10-13T20:26:27.498Z,32.70
2022-10-13T20:28:58.467Z,29.50
2022-10-13T20:31:30.006Z,35.00
2022-10-13T20:34:00.435Z,32.90
2022-10-13T20:36:38.760Z,35.40
2022-10-13T20:39:10.061Z,34.70
2022-10-13T20:41:41.323Z,36.30
2022-10-13T20:44:13.096Z,39.90
2022-10-13T20:46:43.916Z,43.00
2022-10-13T20:49:14.262Z,32.20
2022-10-13T20:51:45.549Z,35.80
2022-10-13T20:54:16.863Z,31.90
2022-10-13T20:56:48.634Z,33.30
2022-10-13T20:59:18.996Z,34.00
2022-10-13T21:01:49.873Z,33.30
2022-10-13T21:04:20.462Z,36.60
2022-10-13T21:06:53.356Z,33.90
2022-10-13T21:09:23.979Z,36.10
2022-10-13T21:11:55.179Z,29.10
2022-10-13T21:14:27.409Z,30.90
2022-10-13T21:16:58.505Z,33.20
2022-10-13T21:19:29.614Z,35.20
2022-10-13T21:22:01.327Z,37.80
2022-10-13T21:24:32.596Z,35.90
2022-10-13T21:27:03.593Z,32.90
2022-10-13T21:29:34.094Z,33.30
2022-10-13T21:32:05.343Z,33.80
2022-10-13T21:34:35.738Z,31.90
2022-10-13T21:37:06.991Z,30.60
2022-10-13T21:39:37.586Z,34.10
2022-10-13T21:42:08.631Z,38.70
2022-10-13T21:44:39.930Z,31.70
2022-10-13T21:47:11.740Z,29.30
2022-10-13T21:49:42.344Z,27.30
2022-10-13T21:52:13.155Z,27.30
2022-10-13T21:54:43.516Z,31.50
2022-10-13T21:57:14.492Z,28.90
2022-10-13T21:59:44.866Z,28.60
2022-10-13T22:02:16.044Z,27.70
2022-10-13T22:04:46.361Z,32.90
2022-10-13T22:07:17.000Z,25.30
2022-10-13T22:09:47.407Z,29.10
2022-10-13T22:12:18.469Z,28.60
2022-10-13T22:14:49.490Z,32.20
2022-10-13T22:17:24.256Z,31.00
2022-10-13T22:19:54.876Z,25.60
2022-10-13T22:22:30.756Z,26.20
2022-10-13T22:25:02.043Z,30.40
2022-10-13T22:27:36.313Z,28.30
2022-10-13T22:30:07.776Z,32.80
2022-10-13T22:32:38.577Z,29.70
2022-10-13T22:35:09.889Z,31.10
2022-10-13T22:37:40.652Z,32.60
2022-10-13T22:40:12.327Z,33.00
2022-10-13T22:42:42.922Z,41.70
2022-10-13T22:45:13.520Z,37.00
2022-10-13T22:47:44.508Z,37.60
2022-10-13T22:50:14.952Z,32.90
2022-10-13T22:52:45.589Z,31.40
2022-10-13T22:55:16.474Z,31.10
2022-10-13T22:57:47.411Z,29.20
2022-10-13T23:00:18.296Z,30.50
2022-10-13T23:02:50.126Z,32.60
2022-10-13T23:05:20.388Z,34.70
2022-10-13T23:07:51.605Z,34.10
2022-10-13T23:10:21.911Z,32.50
2022-10-13T23:12:53.192Z,32.00
2022-10-13T23:15:23.675Z,32.40
2022-10-13T23:17:54.860Z,32.60
2022-10-13T23:20:25.555Z,30.20
2022-10-13T23:22:56.531Z,29.30
2022-10-13T23:25:27.424Z,37.50
2022-10-13T23:27:59.333Z,34.50
2022-10-13T23:30:30.350Z,43.70
2022-10-13T23:33:01.095Z,35.40
2022-10-13T23:35:32.143Z,37.30
2022-10-13T23:38:03.360Z,36.30
2022-10-13T23:40:34.591Z,34.10
2022-10-13T23:43:05.936Z,36.00
2022-10-13T23:45:36.357Z,35.60
2022-10-13T23:48:08.954Z,41.70
2022-10-13T23:50:39.287Z,37.80
2022-10-13T23:53:09.949Z,39.50
2022-10-13T23:55:40.828Z,42.10
2022-10-13T23:58:11.831Z,37.90
